Time;durP1;ratioP1;P1;durP2;ratioP2;P2;SDS_P1;SDS_P2;PMS_P1;PMS_P2;Temp;Humidity;BMP_temperature;BMP_pressure;BME280_temperature;BME280_humidity;BME280_pressure;Samples;Min_cycle;Max_cycle;Signal;HPM_P1;HPM_P2
2024/01/13 00:01:55;;;;;;;16.87;7.90;;;-3.30;94.40;;;-0.94;60.84;98754.06;5072160;28;20047;-51
2024/01/13 00:04:22;;;;;;;20.07;8.90;;;-3.30;93.60;;;-1.01;60.92;98739.53;5072109;28;20044;-53
2024/01/13 00:06:50;;;;;;;22.43;8.97;;;-3.40;94.30;;;-1.04;61.67;98742.31;5072227;28;20044;-54
2024/01/13 00:09:18;;;;;;;17.43;9.10;;;-3.40;93.80;;;-1.08;61.93;98731.13;5072303;28;20496;-52
2024/01/13 00:11:45;;;;;;;21.47;8.40;;;-3.50;95.60;;;-1.04;61.31;98726.63;5070072;28;20048;-54
2024/01/13 00:14:13;;;;;;;24.13;9.67;;;-3.40;95.30;;;-1.09;62.02;98721.56;5071759;28;20041;-53
2024/01/13 00:16:41;;;;;;;18.47;8.20;;;-3.40;95.80;;;-1.06;61.50;98716.22;5070870;28;20067;-53
2024/01/13 00:19:08;;;;;;;15.87;7.37;;;-3.40;94.40;;;-1.06;61.60;98715.38;5072131;28;20044;-53
2024/01/13 00:21:36;;;;;;;34.80;12.97;;;-3.30;93.90;;;-1.08;61.90;98727.66;5070579;28;20531;-52
2024/01/13 00:24:04;;;;;;;26.07;9.33;;;-3.40;95.00;;;-1.03;61.70;98710.88;5071852;28;20048;-54
2024/01/13 00:26:32;;;;;;;24.80;10.37;;;-3.30;95.80;;;-0.97;61.29;98712.38;5070405;28;20415;-53
2024/01/13 00:29:00;;;;;;;25.67;11.40;;;-3.10;95.10;;;-0.92;61.45;98712.19;5069335;28;20052;-54
2024/01/13 00:31:28;;;;;;;21.23;9.27;;;-3.00;94.30;;;-0.85;61.21;98713.66;5071264;28;20052;-53
2024/01/13 00:33:55;;;;;;;23.53;9.80;;;-2.90;93.80;;;-0.81;61.80;98710.84;5063693;28;20036;-53
2024/01/13 00:36:23;;;;;;;20.00;9.40;;;-3.00;93.50;;;-0.80;61.18;98706.44;5070486;28;20447;-52
2024/01/13 00:38:51;;;;;;;26.40;14.13;;;-3.00;93.20;;;-0.76;61.10;98702.78;5071338;28;20051;-54
2024/01/13 00:41:18;;;;;;;28.33;11.70;;;-3.00;93.60;;;-0.74;61.20;98697.50;5071277;28;20040;-50
2024/01/13 00:43:47;;;;;;;23.10;9.13;;;-2.90;93.20;;;-0.72;61.20;98690.44;5078366;28;20068;-52
2024/01/13 00:46:15;;;;;;;40.40;13.30;;;-3.00;92.70;;;-0.71;61.22;98690.38;5070280;28;20041;-54
2024/01/13 00:48:42;;;;;;;18.73;8.17;;;-3.00;91.70;;;-0.75;61.35;98686.19;5071397;28;20428;-55
2024/01/13 00:51:11;;;;;;;20.40;9.37;;;-3.10;92.00;;;-0.73;61.22;98686.97;5071041;28;20045;-54
2024/01/13 00:53:42;;;;;;;21.17;9.00;;;-3.00;93.00;;;-0.71;61.53;98689.53;5070253;28;20515;-53
2024/01/13 00:56:10;;;;;;;17.07;7.97;;;-2.90;92.50;;;-0.67;61.26;98691.09;5070234;28;20040;-53
2024/01/13 00:58:39;;;;;;;24.10;9.63;;;-2.80;92.00;;;-0.67;61.54;98685.88;5069447;28;20048;-54
2024/01/13 01:01:13;;;;;;;22.63;9.35;;;-2.90;91.20;;;-0.66;61.01;98683.19;5070928;28;20060;-55
2024/01/13 01:03:44;;;;;;;26.57;10.03;;;-2.80;91.50;;;-0.64;60.92;98681.34;5071017;28;20388;-53
2024/01/13 01:06:13;;;;;;;17.40;8.87;;;-2.90;91.50;;;-0.65;60.92;98681.41;5070924;28;20067;-54
2024/01/13 01:08:41;;;;;;;18.23;9.43;;;-2.90;90.70;;;-0.67;60.64;98671.00;5071107;28;20044;-54
2024/01/13 01:11:09;;;;;;;22.63;9.87;;;-3.00;91.60;;;-0.68;60.86;98676.31;5070787;28;20040;-53
2024/01/13 01:13:39;;;;;;;22.20;9.37;;;-2.90;91.90;;;-0.67;60.81;98683.25;5070921;28;20045;-55
2024/01/13 01:16:07;;;;;;;18.53;8.90;;;-2.90;91.70;;;-0.67;61.14;98678.03;5070584;28;20055;-55
2024/01/13 01:18:35;;;;;;;19.50;8.50;;;-2.90;91.70;;;-0.67;61.38;98684.09;5069318;28;20041;-54
2024/01/13 01:21:14;;;;;;;20.53;8.70;;;-2.90;91.90;;;-0.65;61.09;98681.41;5069629;28;20510;-56
2024/01/13 01:23:49;;;;;;;20.83;8.63;;;-2.90;91.70;;;-0.64;60.81;98675.25;5070907;28;20052;-54
2024/01/13 01:26:17;;;;;;;22.33;8.13;;;-2.90;91.10;;;-0.63;61.16;98679.59;5069598;28;20044;-54
2024/01/13 01:28:45;;;;;;;20.40;9.87;;;-3.00;91.40;;;-0.63;61.17;98677.81;5070543;28;20052;-51
2024/01/13 01:31:13;;;;;;;17.23;7.73;;;-2.90;91.50;;;-0.67;60.93;98673.63;5070617;28;20044;-53
2024/01/13 01:33:41;;;;;;;17.43;8.00;;;-3.00;90.90;;;-0.68;60.72;98661.47;5070634;28;20447;-53
2024/01/13 01:36:09;;;;;;;19.10;7.97;;;-3.00;91.20;;;-0.67;60.57;98668.41;5070375;28;20033;-54
2024/01/13 01:38:37;;;;;;;19.33;9.27;;;-3.00;91.70;;;-0.67;60.42;98667.56;5070759;28;20041;-52
2024/01/13 01:41:15;;;;;;;15.40;7.68;;;-3.00;90.70;;;-0.69;60.65;98664.16;5069591;28;20064;-54
2024/01/13 01:43:45;;;;;;;18.60;9.00;;;-3.00;91.60;;;-0.68;60.48;98661.47;5069287;28;20064;-53
2024/01/13 01:46:13;;;;;;;23.63;8.80;;;-2.90;91.80;;;-0.69;61.05;98651.94;5071075;28;20052;-51
2024/01/13 01:48:43;;;;;;;22.83;9.63;;;-3.00;90.60;;;-0.70;60.59;98654.59;5071176;28;20037;-51
2024/01/13 01:51:14;;;;;;;19.93;9.17;;;-3.00;91.20;;;-0.69;60.45;98653.69;5068014;28;20068;-54
2024/01/13 01:53:44;;;;;;;19.50;8.20;;;-3.00;91.80;;;-0.70;60.46;98659.84;5085896;28;20045;-54
2024/01/13 01:56:17;;;;;;;17.57;8.57;;;-3.00;91.20;;;-0.73;61.10;98655.59;5069476;28;20056;-51
2024/01/13 01:58:47;;;;;;;21.53;8.53;;;-3.10;91.40;;;-0.73;60.62;98644.28;5069399;28;20488;-54
2024/01/13 02:01:17;;;;;;;17.50;7.07;;;-3.10;91.80;;;-0.72;61.08;98645.97;5070083;28;20067;-51
2024/01/13 02:03:46;;;;;;;17.57;8.23;;;-3.10;92.60;;;-0.71;61.46;98639.84;5070248;28;20056;-52
2024/01/13 02:06:15;;;;;;;30.00;11.50;;;-3.00;92.40;;;-0.68;61.20;98629.22;5070586;28;20412;-53
2024/01/13 02:08:44;;;;;;;25.07;8.30;;;-3.00;92.40;;;-0.67;61.19;98634.41;5070426;28;20053;-54
2024/01/13 02:11:12;;;;;;;20.47;8.90;;;-2.90;91.70;;;-0.68;60.90;98630.09;5051752;28;20056;-52
2024/01/13 02:13:45;;;;;;;21.33;8.67;;;-2.90;91.90;;;-0.64;60.81;98636.88;5068987;28;20420;-54
2024/01/13 02:16:15;;;;;;;16.40;7.60;;;-2.90;91.70;;;-0.65;60.64;98632.56;5069293;28;20511;-53
2024/01/13 02:18:43;;;;;;;17.37;7.67;;;-2.90;91.40;;;-0.65;61.29;98632.56;5070337;28;20052;-55
2024/01/13 02:21:13;;;;;;;16.00;8.70;;;-3.00;90.90;;;-0.68;61.17;98624.00;5070166;28;20268;-52
2024/01/13 02:23:43;;;;;;;19.70;8.40;;;-3.00;91.50;;;-0.65;60.70;98629.09;5069122;28;20075;-50
2024/01/13 02:26:11;;;;;;;17.07;8.23;;;-3.00;92.50;;;-0.59;60.79;98626.22;5070120;28;20044;-51
2024/01/13 02:28:39;;;;;;;18.07;8.60;;;-2.90;92.10;;;-0.57;60.78;98619.16;5071319;28;20044;-53
2024/01/13 02:31:16;;;;;;;29.70;11.67;;;-2.80;91.80;;;-0.57;61.08;98627.00;5066405;28;20037;-54
2024/01/13 02:33:50;;;;;;;24.67;9.93;;;-2.90;90.50;;;-0.62;61.31;98623.72;5072022;28;20052;-52
2024/01/13 02:36:21;;;;;;;32.60;13.83;;;-2.90;91.30;;;-0.62;61.03;98611.50;5073798;28;20124;-55
2024/01/13 02:38:48;;;;;;;23.97;10.53;;;-2.90;91.00;;;-0.58;60.63;98606.13;5072775;28;20039;-58
2024/01/13 02:41:16;;;;;;;20.90;9.03;;;-2.90;91.90;;;-0.57;60.29;98605.22;5073657;28;20040;-54
2024/01/13 02:43:44;;;;;;;17.23;8.73;;;-2.90;91.20;;;-0.55;61.21;98608.63;5073356;28;20059;-53
2024/01/13 02:46:11;;;;;;;18.50;7.90;;;-2.90;91.50;;;-0.55;60.54;98608.63;5074005;28;20044;-54
2024/01/13 02:48:44;;;;;;;14.10;10.57;;;-2.90;90.30;;;-0.60;60.82;98606.22;5073864;28;20049;-54
2024/01/13 02:51:15;;;;;;;22.88;10.25;;;-2.90;89.80;;;-0.72;60.46;98598.91;5064774;28;20044;-50
2024/01/13 02:53:45;;;;;;;19.00;7.23;;;-3.10;91.00;;;-0.69;60.33;98598.78;5072906;28;20051;-51
2024/01/13 02:56:13;;;;;;;17.50;7.13;;;-3.00;91.40;;;-0.68;60.21;98595.22;5073807;28;20033;-50
2024/01/13 02:58:41;;;;;;;11.70;6.40;;;-3.00;90.70;;;-0.69;60.42;98598.78;5074208;28;20051;-50
2024/01/13 03:01:14;;;;;;;14.37;6.83;;;-3.00;90.50;;;-0.68;60.93;98585.63;5073448;28;20040;-53
2024/01/13 03:03:49;;;;;;;16.07;6.47;;;-3.00;90.00;;;-0.71;60.24;98580.53;5071906;28;20063;-52
2024/01/13 03:06:18;;;;;;;16.57;6.57;;;-3.00;89.80;;;-0.70;60.50;98582.25;5056451;28;20416;-51
2024/01/13 03:08:46;;;;;;;13.80;6.37;;;-2.90;90.50;;;-0.68;60.82;98579.53;5073299;28;20059;-50
2024/01/13 03:11:14;;;;;;;13.03;6.10;;;-2.90;89.30;;;-0.71;60.43;98577.06;5073061;28;20432;-49
2024/01/13 03:13:44;;;;;;;13.03;5.97;;;-3.00;89.50;;;-0.71;60.55;98577.06;5073240;28;20061;-51
2024/01/13 03:16:13;;;;;;;16.97;6.40;;;-3.00;90.00;;;-0.72;60.47;98570.13;5073274;28;20041;-53
2024/01/13 03:18:41;;;;;;;12.20;6.60;;;-3.10;90.50;;;-0.73;60.55;98571.91;5073019;28;20049;-50
2024/01/13 03:21:11;;;;;;;19.40;7.47;;;-3.10;90.30;;;-0.78;60.90;98583.47;5064793;28;20388;-54
2024/01/13 03:23:43;;;;;;;15.47;7.40;;;-3.20;90.30;;;-0.82;60.40;98574.91;5073073;28;20044;-52
2024/01/13 03:26:15;;;;;;;14.97;7.57;;;-3.20;91.80;;;-0.78;61.18;98581.72;5065167;28;20431;-52
2024/01/13 03:28:43;;;;;;;15.90;6.87;;;-3.10;92.30;;;-0.74;60.52;98585.88;5072972;28;20052;-53
2024/01/13 03:31:13;;;;;;;20.47;8.20;;;-3.00;92.00;;;-0.71;60.47;98580.53;5064670;28;20037;-54
2024/01/13 03:33:45;;;;;;;16.60;7.37;;;-3.00;91.50;;;-0.68;60.53;98584.75;5072771;28;20404;-54
2024/01/13 03:36:16;;;;;;;37.23;11.57;;;-2.90;91.30;;;-0.75;60.50;98586.81;5072539;28;20052;-52
2024/01/13 03:38:44;;;;;;;14.30;6.90;;;-3.10;89.40;;;-0.92;60.38;98584.09;5071330;28;20045;-52
2024/01/13 03:41:17;;;;;;;18.40;7.90;;;-3.30;90.70;;;-0.89;60.78;98579.59;5072204;28;20068;-55
2024/01/13 03:43:45;;;;;;;15.47;7.47;;;-3.30;93.20;;;-0.91;61.32;98570.09;5072587;28;20051;-53
2024/01/13 03:46:13;;;;;;;17.57;8.17;;;-3.30;91.60;;;-0.90;61.12;98570.03;5064734;28;20044;-55
2024/01/13 03:48:40;;;;;;;14.83;6.90;;;-3.30;92.30;;;-0.95;60.90;98572.00;5072771;28;20049;-55
2024/01/13 03:51:10;;;;;;;17.07;7.20;;;-3.30;91.70;;;-0.94;60.87;98552.78;5070242;28;20056;-55
2024/01/13 03:53:38;;;;;;;18.03;7.87;;;-3.30;93.30;;;-0.89;61.50;98563.91;5070479;28;20048;-53
2024/01/13 03:56:08;;;;;;;19.43;8.43;;;-3.20;93.30;;;-0.83;61.48;98565.41;5072462;28;20055;-55
2024/01/13 03:58:37;;;;;;;14.37;6.80;;;-3.10;92.90;;;-0.77;61.33;98553.81;5072309;28;20044;-52
2024/01/13 04:01:05;;;;;;;14.93;6.60;;;-3.00;92.50;;;-0.75;61.11;98549.38;5071961;28;20056;-55
2024/01/13 04:03:33;;;;;;;13.40;6.20;;;-3.00;91.90;;;-0.72;60.74;98542.22;5071180;28;20055;-55
2024/01/13 04:06:02;;;;;;;16.87;6.80;;;-3.00;90.60;;;-0.80;60.62;98544.31;5072239;28;20044;-53
2024/01/13 04:08:32;;;;;;;14.40;6.03;;;-3.20;90.30;;;-0.85;61.08;98541.94;5072072;28;20052;-52
2024/01/13 04:11:08;;;;;;;16.10;7.23;;;-3.30;91.00;;;-0.84;60.97;98534.91;5071918;28;20037;-54
2024/01/13 04:13:37;;;;;;;15.93;6.53;;;-3.20;92.10;;;-0.88;61.13;98528.97;5071048;28;20045;-52
2024/01/13 04:16:05;;;;;;;17.60;8.43;;;-3.30;91.70;;;-0.87;60.96;98530.69;5062903;28;20051;-54
2024/01/13 04:18:33;;;;;;;19.30;7.50;;;-3.30;92.30;;;-0.87;60.71;98532.47;5072202;28;20047;-51
2024/01/13 04:21:01;;;;;;;18.03;8.20;;;-3.30;92.30;;;-0.85;60.98;98530.63;5071558;28;20067;-52
2024/01/13 04:23:46;;;;;;;15.53;6.67;;;-3.20;92.60;;;-0.80;61.29;98521.63;5072023;28;20492;-53
2024/01/13 04:26:14;;;;;;;15.97;7.47;;;-3.10;92.60;;;-0.76;61.46;98516.28;5072262;28;20051;-54
2024/01/13 04:28:42;;;;;;;18.57;7.83;;;-3.10;92.50;;;-0.73;61.27;98506.53;5070284;28;20511;-51
2024/01/13 04:31:09;;;;;;;16.67;7.73;;;-3.00;92.00;;;-0.66;60.76;98510.56;5071372;28;20037;-50
2024/01/13 04:33:37;;;;;;;19.97;8.40;;;-2.90;92.00;;;-0.63;61.23;98513.03;5071696;28;20072;-54
2024/01/13 04:36:05;;;;;;;13.77;7.30;;;-2.90;90.50;;;-0.64;61.36;98507.88;5071642;28;20052;-52
2024/01/13 04:38:33;;;;;;;13.03;7.03;;;-2.90;90.60;;;-0.63;60.60;98509.56;5070625;28;20037;-51
2024/01/13 04:41:00;;;;;;;16.20;7.20;;;-3.00;89.80;;;-0.65;60.92;98512.25;5071433;28;20040;-54
2024/01/13 04:43:29;;;;;;;18.23;8.07;;;-2.90;90.30;;;-0.64;60.74;98520.94;5071221;28;20407;-53
2024/01/13 04:45:56;;;;;;;17.17;8.13;;;-2.90;90.80;;;-0.63;61.07;98513.03;5071435;28;20041;-52
2024/01/13 04:48:24;;;;;;;18.20;7.87;;;-2.90;90.30;;;-0.61;60.76;98516.41;5070238;28;20051;-52
2024/01/13 04:50:52;;;;;;;18.50;8.00;;;-2.90;90.60;;;-0.55;61.11;98511.84;5066275;28;20048;-54
2024/01/13 04:53:20;;;;;;;19.73;8.97;;;-2.80;90.20;;;-0.53;61.15;98520.47;5062200;28;20055;-54
2024/01/13 04:55:48;;;;;;;19.33;8.47;;;-2.80;89.90;;;-0.51;60.60;98516.00;5071359;28;20045;-51
2024/01/13 04:58:15;;;;;;;15.17;7.70;;;-2.80;89.60;;;-0.51;60.52;98508.16;5070210;28;20040;-49
2024/01/13 05:00:43;;;;;;;18.77;8.27;;;-2.80;89.80;;;-0.51;60.37;98502.94;5071169;28;20048;-54
2024/01/13 05:03:11;;;;;;;20.07;9.03;;;-2.80;89.80;;;-0.51;60.40;98503.78;5069580;28;20048;-54
2024/01/13 05:05:39;;;;;;;19.00;7.00;;;-2.70;89.90;;;-0.51;61.14;98500.31;5071089;28;20040;-54
2024/01/13 05:08:06;;;;;;;18.90;7.33;;;-2.80;89.50;;;-0.52;60.54;98499.47;5071098;28;20044;-53
2024/01/13 05:10:34;;;;;;;16.70;8.10;;;-2.80;89.00;;;-0.54;60.87;98496.09;5070881;28;20283;-53
2024/01/13 05:13:02;;;;;;;19.57;8.13;;;-2.80;89.20;;;-0.52;60.90;98503.88;5069710;28;20040;-51
2024/01/13 05:15:29;;;;;;;15.87;6.97;;;-2.70;88.80;;;-0.52;60.41;98501.25;5070834;28;20044;-53
2024/01/13 05:17:57;;;;;;;17.53;8.57;;;-2.80;88.60;;;-0.50;60.48;98504.63;5070907;28;20056;-53
2024/01/13 05:20:25;;;;;;;18.47;7.00;;;-2.80;89.30;;;-0.50;60.63;98494.19;5071021;28;20119;-52
2024/01/13 05:22:52;;;;;;;16.97;7.47;;;-2.80;88.50;;;-0.50;60.12;98496.78;5070284;28;20048;-55
2024/01/13 05:25:20;;;;;;;18.63;7.97;;;-2.90;88.80;;;-0.50;60.21;98499.41;5070752;28;20045;-53
2024/01/13 05:27:48;;;;;;;15.93;7.00;;;-2.90;88.90;;;-0.51;60.99;98505.53;5070727;28;20048;-54
2024/01/13 05:30:16;;;;;;;15.47;7.40;;;-2.90;88.80;;;-0.51;60.39;98505.53;5070769;28;20048;-55
2024/01/13 05:32:44;;;;;;;19.57;7.70;;;-2.80;89.10;;;-0.50;60.71;98512.50;5070737;28;20056;-55
2024/01/13 05:35:12;;;;;;;17.47;8.77;;;-2.80;88.70;;;-0.50;60.63;98502.03;5071042;28;20415;-51
2024/01/13 05:37:39;;;;;;;19.90;8.77;;;-2.80;89.20;;;-0.48;60.35;98495.78;5070753;28;20554;-55
2024/01/13 05:40:08;;;;;;;23.00;7.43;;;-2.70;88.50;;;-0.49;60.06;98494.09;5070557;28;20491;-53
2024/01/13 05:42:35;;;;;;;18.03;7.87;;;-2.70;88.00;;;-0.51;60.43;98495.91;5070280;28;20420;-54
2024/01/13 05:45:04;;;;;;;16.60;7.80;;;-2.80;88.10;;;-0.51;61.01;98501.16;5070490;28;20064;-51
2024/01/13 05:47:31;;;;;;;19.57;7.70;;;-2.80;88.30;;;-0.53;60.75;98492.53;5070693;28;20284;-53
2024/01/13 05:50:00;;;;;;;17.27;8.03;;;-2.90;87.70;;;-0.54;60.56;98497.81;5070504;28;20052;-55
2024/01/13 05:52:28;;;;;;;15.47;6.87;;;-2.90;88.60;;;-0.53;60.47;98491.69;5069986;28;20049;-53
2024/01/13 05:54:56;;;;;;;19.43;7.57;;;-2.80;89.30;;;-0.51;60.08;98489.84;5069586;28;20044;-54
2024/01/13 05:57:24;;;;;;;16.90;8.10;;;-2.90;88.20;;;-0.54;60.03;98488.22;5070473;28;20032;-54
2024/01/13 05:59:52;;;;;;;19.10;8.80;;;-2.80;88.20;;;-0.55;60.18;98481.28;5070545;28;20381;-53
2024/01/13 06:02:19;;;;;;;16.83;8.10;;;-2.90;87.90;;;-0.56;60.91;98479.59;5070660;28;20052;-54
2024/01/13 06:04:47;;;;;;;22.33;8.57;;;-2.90;88.50;;;-0.57;60.09;98484.91;5074610;28;20041;-54
2024/01/13 06:07:15;;;;;;;14.73;7.60;;;-2.90;89.30;;;-0.58;60.55;98486.69;5074686;28;20516;-54
2024/01/13 06:09:42;;;;;;;16.83;8.33;;;-2.90;89.00;;;-0.55;60.57;98485.69;5074710;28;20048;-53
2024/01/13 06:12:12;;;;;;;16.13;7.03;;;-2.90;89.10;;;-0.53;60.29;98473.38;5074272;28;20049;-55
2024/01/13 06:14:41;;;;;;;18.77;8.10;;;-2.90;89.10;;;-0.51;60.67;98472.38;5072737;28;20420;-52
2024/01/13 06:17:09;;;;;;;14.57;7.00;;;-2.80;89.00;;;-0.51;60.21;98472.38;5074407;28;20499;-53
2024/01/13 06:19:37;;;;;;;16.50;7.93;;;-2.80;88.60;;;-0.51;60.68;98468.91;5074539;28;20033;-51
2024/01/13 06:22:04;;;;;;;19.13;7.43;;;-2.80;88.80;;;-0.51;60.62;98468.91;5072850;28;20415;-54
2024/01/13 06:24:32;;;;;;;22.10;8.97;;;-2.80;89.10;;;-0.50;60.09;98465.41;5074295;28;20047;-54
2024/01/13 06:27:00;;;;;;;20.87;9.00;;;-2.80;88.90;;;-0.49;60.78;98464.47;5074144;28;20413;-52
2024/01/13 06:29:27;;;;;;;24.30;9.57;;;-2.70;89.30;;;-0.49;61.05;98465.31;5074190;28;20048;-52
2024/01/13 06:31:55;;;;;;;21.43;8.93;;;-2.80;88.70;;;-0.48;59.92;98479.25;5072527;28;20056;-54
2024/01/13 06:34:23;;;;;;;21.67;9.63;;;-2.70;88.20;;;-0.49;59.91;98467.91;5073549;28;20063;-54
2024/01/13 06:36:51;;;;;;;20.67;9.97;;;-2.80;88.40;;;-0.49;60.49;98465.31;5073878;28;20037;-53
2024/01/13 06:39:18;;;;;;;21.07;9.93;;;-2.80;88.80;;;-0.49;60.02;98462.69;5073892;28;20044;-54
2024/01/13 06:41:46;;;;;;;68.47;28.47;;;-2.80;88.30;;;-0.50;60.68;98465.41;5071831;28;20530;-54
2024/01/13 06:44:14;;;;;;;49.57;23.83;;;-2.90;89.20;;;-0.47;60.83;98475.69;5073921;28;20052;-55
2024/01/13 06:46:41;;;;;;;28.10;13.43;;;-2.80;89.10;;;-0.44;60.01;98472.94;5072529;28;20044;-54
2024/01/13 06:49:09;;;;;;;21.67;10.73;;;-2.70;89.00;;;-0.46;60.53;98474.78;5073554;28;20045;-54
2024/01/13 06:51:37;;;;;;;22.83;11.27;;;-2.80;87.90;;;-0.46;60.08;98473.03;5073390;28;20056;-54
2024/01/13 06:54:05;;;;;;;23.67;9.90;;;-2.80;88.10;;;-0.49;60.04;98459.22;5073325;28;20531;-55
2024/01/13 06:56:33;;;;;;;19.57;9.80;;;-2.80;88.50;;;-0.51;60.26;98459.28;5072293;28;20040;-52
2024/01/13 06:59:01;;;;;;;17.57;8.97;;;-2.90;89.00;;;-0.53;59.94;98458.53;5073749;28;20040;-54
2024/01/13 07:01:28;;;;;;;27.40;10.43;;;-2.90;89.40;;;-0.54;60.16;98456.84;5071931;28;20048;-54
2024/01/13 07:03:56;;;;;;;20.30;8.30;;;-2.90;89.50;;;-0.51;60.36;98463.69;5073189;28;20047;-55
2024/01/13 07:06:27;;;;;;;18.17;7.93;;;-2.80;89.60;;;-0.48;60.00;98453.09;5073303;28;20051;-55
2024/01/13 07:08:57;;;;;;;21.37;9.53;;;-2.80;88.90;;;-0.49;59.91;98448.75;5072981;28;20045;-52
2024/01/13 07:11:26;;;;;;;18.97;9.80;;;-2.80;88.10;;;-0.50;60.58;98442.69;5071448;28;20427;-57
2024/01/13 07:13:54;;;;;;;18.57;8.97;;;-2.80;88.60;;;-0.49;60.33;98438.31;5071047;28;20060;-55
2024/01/13 07:16:22;;;;;;;18.20;9.53;;;-2.80;89.00;;;-0.48;60.75;98442.63;5073250;28;20044;-56
2024/01/13 07:18:50;;;;;;;20.00;8.47;;;-2.80;89.00;;;-0.47;60.42;98436.47;5073113;28;20500;-55
2024/01/13 07:21:19;;;;;;;20.10;8.60;;;-2.80;89.40;;;-0.45;60.14;98435.47;5072766;28;20428;-57
2024/01/13 07:23:47;;;;;;;13.83;8.27;;;-2.70;89.50;;;-0.43;60.02;98431.03;5073196;28;20420;-53
2024/01/13 07:26:15;;;;;;;17.83;7.87;;;-2.70;88.30;;;-0.43;60.58;98423.19;5072850;28;20040;-55
2024/01/13 07:28:43;;;;;;;19.50;8.60;;;-2.70;88.10;;;-0.44;60.71;98416.25;5073212;28;20048;-53
2024/01/13 07:31:11;;;;;;;20.03;9.90;;;-2.70;88.80;;;-0.43;60.32;98428.41;5071541;28;20045;-54
2024/01/13 07:33:39;;;;;;;20.43;7.87;;;-2.70;88.60;;;-0.42;60.57;98427.47;5072935;28;20114;-53
2024/01/13 07:36:07;;;;;;;16.73;10.80;;;-2.70;88.20;;;-0.42;60.68;98427.47;5072835;28;20036;-55
2024/01/13 07:38:35;;;;;;;19.90;10.03;;;-2.70;88.90;;;-0.39;60.05;98431.69;5073133;28;20048;-56
2024/01/13 07:41:03;;;;;;;17.97;9.03;;;-2.70;89.40;;;-0.35;60.69;98435.03;5072712;28;20036;-54
2024/01/13 07:43:31;;;;;;;21.83;8.83;;;-2.60;88.90;;;-0.35;59.94;98440.25;5072570;28;20047;-55
2024/01/13 07:45:59;;;;;;;24.43;10.77;;;-2.60;88.40;;;-0.34;60.08;98440.19;5071723;28;20051;-57
2024/01/13 07:48:27;;;;;;;23.27;12.53;;;-2.60;88.20;;;-0.34;60.51;98429.72;5072659;28;20060;-53
2024/01/13 07:50:55;;;;;;;22.10;12.60;;;-2.60;88.00;;;-0.34;60.78;98431.50;5072235;28;20500;-54
2024/01/13 07:53:23;;;;;;;21.70;10.73;;;-2.60;88.20;;;-0.35;60.01;98433.28;5068655;28;20071;-55
2024/01/13 07:55:50;;;;;;;21.83;9.17;;;-2.70;88.50;;;-0.35;60.04;98435.91;5087829;28;20393;-55
2024/01/13 07:58:18;;;;;;;21.77;9.77;;;-2.70;88.20;;;-0.33;59.94;98439.28;5072345;28;20431;-53
2024/01/13 08:00:47;;;;;;;25.77;11.03;;;-2.70;88.70;;;-0.33;60.80;98438.41;5075239;28;20499;-55
2024/01/13 08:03:15;;;;;;;21.60;9.63;;;-2.70;88.30;;;-0.34;60.63;98437.56;5083401;28;20052;-53
2024/01/13 08:05:43;;;;;;;18.47;7.80;;;-2.70;88.20;;;-0.34;59.82;98445.41;5072222;28;20049;-50
2024/01/13 08:08:11;;;;;;;21.07;7.90;;;-2.70;88.50;;;-0.32;60.75;98446.19;5072476;28;20092;-51
2024/01/13 08:10:39;;;;;;;20.37;9.47;;;-2.60;88.40;;;-0.31;60.79;98441.81;5064281;28;20055;-52
2024/01/13 08:13:07;;;;;;;20.47;9.23;;;-2.60;88.40;;;-0.30;60.38;98446.13;5054573;28;20043;-53
2024/01/13 08:15:35;;;;;;;23.20;8.17;;;-2.60;88.00;;;-0.31;60.72;98440.06;5072218;28;20443;-54
2024/01/13 08:18:03;;;;;;;20.23;9.20;;;-2.70;88.00;;;-0.30;60.53;98440.91;5071010;28;20040;-51
2024/01/13 08:20:31;;;;;;;22.43;9.93;;;-2.60;88.90;;;-0.28;59.90;98433.81;5071804;28;20040;-54
2024/01/13 08:22:59;;;;;;;17.17;8.83;;;-2.60;88.20;;;-0.27;60.01;98428.50;5071597;28;20051;-54
2024/01/13 08:25:27;;;;;;;17.53;7.57;;;-2.60;88.40;;;-0.27;60.58;98431.13;5071379;28;20049;-54
2024/01/13 08:27:55;;;;;;;18.57;7.70;;;-2.50;88.60;;;-0.25;60.43;98436.31;5071359;28;20037;-53
2024/01/13 08:30:23;;;;;;;17.00;7.13;;;-2.50;88.50;;;-0.22;59.78;98430.91;5071787;28;20053;-57
2024/01/13 08:32:51;;;;;;;14.17;6.17;;;-2.50;88.30;;;-0.21;60.62;98441.28;5071588;28;20051;-54
2024/01/13 08:35:19;;;;;;;10.70;5.67;;;-2.50;87.80;;;-0.16;60.18;98441.06;5071726;28;20048;-55
2024/01/13 08:37:51;;;;;;;10.87;6.53;;;-2.40;87.40;;;-0.15;60.30;98450.63;5071954;28;20032;-52
2024/01/13 08:40:19;;;;;;;16.30;6.43;;;-2.40;87.40;;;-0.24;59.61;98441.44;5071631;28;20492;-54
2024/01/13 08:42:49;;;;;;;11.00;5.40;;;-2.50;86.20;;;-0.36;59.66;98435.97;5071188;28;20036;-53
2024/01/13 08:45:19;;;;;;;11.47;6.77;;;-2.70;86.40;;;-0.41;60.30;98447.50;5069804;28;20428;-52
2024/01/13 08:47:47;;;;;;;14.37;6.10;;;-2.70;87.60;;;-0.49;60.24;98444.38;5072005;28;20049;-48
2024/01/13 08:50:15;;;;;;;17.67;7.57;;;-2.80;87.80;;;-0.49;60.60;98436.53;5070495;28;20484;-48
2024/01/13 08:52:43;;;;;;;12.23;6.77;;;-2.70;88.70;;;-0.40;60.63;98437.88;5069608;28;20533;-47
2024/01/13 08:55:11;;;;;;;14.37;7.07;;;-2.70;88.80;;;-0.34;60.89;98440.19;5071053;28;20037;-50
2024/01/13 08:57:39;;;;;;;13.97;7.23;;;-2.60;88.60;;;-0.27;60.76;98444.22;5071600;28;20047;-48
2024/01/13 09:00:08;;;;;;;15.73;7.30;;;-2.50;88.70;;;-0.25;60.78;98439.75;5071391;28;20045;-48
2024/01/13 09:02:39;;;;;;;13.93;7.43;;;-2.50;87.70;;;-0.20;60.40;98453.44;5069768;28;20033;-48
2024/01/13 09:05:08;;;;;;;24.80;13.17;;;-2.30;87.90;;;-0.15;60.13;98449.78;5071126;28;20229;-48
2024/01/13 09:07:37;;;;;;;17.63;8.20;;;-2.40;86.30;;;-0.16;60.50;98448.06;5070987;28;20045;-48
2024/01/13 09:10:06;;;;;;;15.80;9.03;;;-2.40;86.20;;;-0.18;60.36;98452.53;5070980;28;20047;-49
2024/01/13 09:12:34;;;;;;;18.27;10.43;;;-2.40;87.50;;;-0.18;60.21;98456.00;5066571;28;20052;-49
2024/01/13 09:15:02;;;;;;;18.57;9.03;;;-2.40;87.00;;;-0.15;60.02;98460.25;5071026;28;20041;-48
2024/01/13 09:17:30;;;;;;;15.00;8.00;;;-2.40;87.40;;;-0.13;59.78;98461.03;5069413;28;20405;-47
2024/01/13 09:19:59;;;;;;;16.73;8.40;;;-2.40;87.50;;;-0.10;60.35;98460.84;5070960;28;20036;-49
2024/01/13 09:22:27;;;;;;;15.83;8.57;;;-2.30;87.10;;;-0.09;60.24;98455.56;5069218;28;20040;-51
2024/01/13 09:24:55;;;;;;;13.80;8.10;;;-2.30;87.10;;;-0.10;59.71;98453.84;5070964;28;20044;-48
2024/01/13 09:27:22;;;;;;;17.30;8.93;;;-2.30;87.50;;;-0.09;60.49;98450.31;5070979;28;20052;-49
2024/01/13 09:29:50;;;;;;;15.33;7.30;;;-2.30;87.10;;;-0.08;59.83;98459.00;5071176;28;20044;-47
2024/01/13 09:32:18;;;;;;;15.57;7.97;;;-2.30;87.20;;;-0.17;59.75;98449.00;5070631;28;20060;-51
2024/01/13 09:34:46;;;;;;;12.07;6.90;;;-2.40;86.50;;;-0.34;60.01;98455.88;5062641;28;20043;-48
2024/01/13 09:37:15;;;;;;;13.63;7.30;;;-2.50;85.60;;;-0.30;60.25;98449.59;5070339;28;20048;-52
2024/01/13 09:39:43;;;;;;;15.97;7.57;;;-2.50;87.70;;;-0.25;60.04;98444.16;5070729;28;20041;-48
2024/01/13 09:42:23;;;;;;;13.90;6.93;;;-2.50;87.80;;;-0.22;60.44;98436.13;5069191;28;20044;-48
2024/01/13 09:44:52;;;;;;;13.63;7.30;;;-2.40;88.00;;;-0.18;60.31;98435.06;5062041;28;20048;-48
2024/01/13 09:47:20;;;;;;;15.17;6.90;;;-2.40;87.70;;;-0.38;60.16;98433.41;5070602;28;20056;-48
2024/01/13 09:49:50;;;;;;;19.00;8.70;;;-2.50;87.30;;;-0.30;60.61;98439.13;5062125;28;20041;-49
2024/01/13 09:52:19;;;;;;;15.67;8.53;;;-2.40;88.60;;;-0.26;60.92;98432.81;5070227;28;20048;-51
2024/01/13 09:54:54;;;;;;;17.67;9.33;;;-2.40;87.70;;;-0.20;60.39;98442.97;5060842;28;20032;-50
2024/01/13 09:57:25;;;;;;;16.37;8.53;;;-2.40;87.50;;;-0.26;60.67;98430.19;5068910;28;20048;-49
2024/01/13 09:59:53;;;;;;;16.77;10.03;;;-2.40;88.00;;;-0.18;60.11;98426.38;5070495;28;20086;-50
2024/01/13 10:02:21;;;;;;;15.83;8.07;;;-2.40;87.50;;;-0.24;59.92;98417.88;5070134;28;20047;-50
2024/01/13 10:04:49;;;;;;;14.70;8.70;;;-2.40;87.40;;;-0.21;60.22;98411.66;5062372;28;20055;-50
2024/01/13 10:07:17;;;;;;;15.07;8.57;;;-2.40;88.20;;;-0.20;59.97;98418.59;5069379;28;20045;-48
2024/01/13 10:09:55;;;;;;;15.03;8.70;;;-2.40;88.30;;;-0.22;60.56;98416.03;5063160;28;20037;-48
2024/01/13 10:12:24;;;;;;;15.67;8.47;;;-2.40;88.00;;;-0.18;60.84;98401.03;5070316;28;20392;-48
2024/01/13 10:14:52;;;;;;;20.97;11.90;;;-2.40;87.50;;;-0.20;60.11;98405.50;5062521;28;20519;-49
2024/01/13 10:17:20;;;;;;;21.33;12.30;;;-2.40;87.60;;;-0.20;60.42;98393.25;5070532;28;20040;-48
2024/01/13 10:19:49;;;;;;;35.50;15.67;;;-2.40;88.20;;;-0.17;60.76;98378.34;5085978;28;20416;-50